This is the latest recevied weather packets stored in our database for station/object N7CW. If no packets are shown the sender has not sent any weather packets the latest 10 day(s).
| Time | Temp. | Humidity | Pressure | Rain* | Wind** | Luminosity | Snow |
|---|---|---|---|---|---|---|---|
| 1777735705 | 16.11° C | 29% | 1019.9 hPa | 0 mm | - | 406 W/m² | - |
| 1777735402 | 15.56° C | 29% | 1019.9 hPa | 0 mm | - | 379 W/m² | - |
| 1777735100 | 16.11° C | 29% | 1020 hPa | 0 mm | - | 345 W/m² | - |
| 1777734796 | 15.56° C | 30% | 1019.8 hPa | 0 mm | - | 363 W/m² | - |
| 1777734494 | 15° C | 30% | 1019.8 hPa | 0 mm | - | 323 W/m² | - |
| 1777734190 | 15° C | 31% | 1020 hPa | 0 mm | - | 326 W/m² | - |
| 1777733886 | 15° C | 31% | 1019.8 hPa | 0 mm | - | 301 W/m² | - |
| 1777733583 | 15° C | 31% | 1019.9 hPa | 0 mm | - | 286 W/m² | - |
| 1777733279 | 14.44° C | 31% | 1019.8 hPa | 0 mm | - | 269 W/m² | - |
| 1777732977 | 14.44° C | 31% | 1019.8 hPa | 0 mm | - | 253 W/m² | - |
| 1777732672 | 14.44° C | 30% | 1019.8 hPa | 0 mm | - | 239 W/m² | - |
| 1777732370 | 13.89° C | 31% | 1019.7 hPa | 0 mm | - | 194 W/m² | - |
| 1777732067 | 13.89° C | 33% | 1019.9 hPa | 0 mm | - | 206 W/m² | - |
| 1777731764 | 13.33° C | 33% | 1019.5 hPa | 0 mm | - | 190 W/m² | - |
| 1777731461 | 13.33° C | 35% | 1019.7 hPa | 0 mm | - | 170 W/m² | - |
| 1777731159 | 14.44° C | 31% | 1019.8 hPa | 0 mm | - | 153 W/m² | - |
| 1777730857 | 13.33° C | 34% | 1019.7 hPa | 0 mm | - | 140 W/m² | - |
| 1777730555 | 12.78° C | 37% | 1019.5 hPa | 0 mm | - | 125 W/m² | - |
| 1777730250 | 11.11° C | 37% | 1019.3 hPa | 0 mm | - | 112 W/m² | - |
| 1777729947 | 10.56° C | 40% | 1019.4 hPa | 0 mm | - | 92 W/m² | - |
| 1777729643 | 10° C | 40% | 1019.4 hPa | 0 mm | - | 75 W/m² | - |
| 1777729340 | 9.44° C | 40% | 1019.2 hPa | 0 mm | - | 73 W/m² | - |
| 1777729036 | 9.44° C | 39% | 1019.3 hPa | 0 mm | - | 64 W/m² | - |
| 1777728733 | 9.44° C | 39% | 1019.2 hPa | 0 mm | - | 55 W/m² | - |
| 1777728430 | 8.33° C | 40% | 1019.2 hPa | 0 mm | - | 45 W/m² | - |
* Rain latest hour (hover to see other rain measurements)
** Current wind speed in m/s (hover to see current wind gust speed)